Time;durP1;ratioP1;P1;durP2;ratioP2;P2;SDS_P1;SDS_P2;PMS_P1;PMS_P2;Temp;Humidity;BMP_temperature;BMP_pressure;BME280_temperature;BME280_humidity;BME280_pressure;Samples;Min_cycle;Max_cycle;Signal;HPM_P1;HPM_P2
2021/11/23 00:01:07;;;;;;;5.95;3.58;;;2.00;99.90;;;;;;5044957;28;20108;-90
2021/11/23 00:03:34;;;;;;;6.35;3.38;;;2.00;99.90;;;;;;5028487;28;20106;-91
2021/11/23 00:06:00;;;;;;;6.82;3.50;;;2.00;99.90;;;;;;5031723;28;20494;-91
2021/11/23 00:08:26;;;;;;;6.45;3.70;;;2.00;99.90;;;;;;5030899;28;20063;-90
2021/11/23 00:10:52;;;;;;;6.85;3.40;;;2.00;99.90;;;;;;5030746;28;20060;-90
2021/11/23 00:13:19;;;;;;;6.40;3.38;;;2.00;99.90;;;;;;5030186;28;20056;-90
2021/11/23 00:15:45;;;;;;;5.03;2.97;;;2.00;99.90;;;;;;5030873;28;20056;-89
2021/11/23 00:18:14;;;;;;;7.10;3.60;;;2.10;99.90;;;;;;5065195;28;20110;-91
2021/11/23 00:20:42;;;;;;;6.10;3.30;;;2.10;99.90;;;;;;5057849;28;20167;-90
2021/11/23 00:23:10;;;;;;;6.25;4.13;;;2.00;99.90;;;;;;5012085;28;20022;-90
2021/11/23 00:25:37;;;;;;;6.65;3.63;;;2.10;99.90;;;;;;5013249;28;20103;-90
2021/11/23 00:28:04;;;;;;;7.00;3.05;;;2.00;99.90;;;;;;5028013;28;20025;-90
2021/11/23 00:30:32;;;;;;;6.97;3.00;;;2.10;99.90;;;;;;5017535;28;20044;-90
2021/11/23 00:33:00;;;;;;;4.93;2.75;;;2.00;99.90;;;;;;5055455;28;20026;-90
2021/11/23 00:35:28;;;;;;;6.75;3.13;;;2.10;99.90;;;;;;5031744;28;20029;-91
2021/11/23 00:37:56;;;;;;;5.93;3.35;;;2.10;99.90;;;;;;5030394;28;20122;-90
2021/11/23 00:40:32;;;;;;;5.30;3.15;;;2.10;99.90;;;;;;5015519;28;20311;-90
2021/11/23 00:43:04;;;;;;;6.05;3.28;;;2.10;99.90;;;;;;5043010;28;20029;-90
2021/11/23 00:45:34;;;;;;;6.13;3.60;;;2.20;99.90;;;;;;5052498;28;20088;-91
2021/11/23 00:48:24;;;;;;;5.57;3.30;;;2.30;99.90;;;;;;5046424;28;20053;-90
2021/11/23 00:50:51;;;;;;;5.40;3.28;;;2.40;99.90;;;;;;5011916;28;20544;-91
2021/11/23 00:53:20;;;;;;;5.10;3.25;;;2.50;99.90;;;;;;5036470;28;20383;-90
2021/11/23 00:55:48;;;;;;;7.05;3.75;;;2.60;99.90;;;;;;5050565;28;20376;-90
2021/11/23 00:58:14;;;;;;;6.40;3.72;;;2.70;99.90;;;;;;5039532;28;20150;-90
2021/11/23 01:00:41;;;;;;;7.88;3.75;;;2.70;99.90;;;;;;5049915;28;20032;-91
2021/11/23 01:03:15;;;;;;;7.43;3.50;;;2.80;99.90;;;;;;5037507;28;20059;-90
2021/11/23 01:05:44;;;;;;;4.90;3.28;;;2.80;99.90;;;;;;5050069;28;20033;-90
2021/11/23 01:08:12;;;;;;;6.60;3.45;;;2.90;99.90;;;;;;5019096;28;20393;-90
2021/11/23 01:10:41;;;;;;;5.93;3.33;;;3.00;99.90;;;;;;5043316;28;20486;-91
2021/11/23 01:13:07;;;;;;;6.10;3.13;;;3.00;99.90;;;;;;5042704;28;20047;-90
2021/11/23 01:15:33;;;;;;;5.38;3.42;;;3.10;99.90;;;;;;5036450;28;20032;-90
2021/11/23 01:18:01;;;;;;;9.05;3.53;;;3.10;99.90;;;;;;5034175;28;20022;-90
2021/11/23 01:20:28;;;;;;;9.23;4.00;;;3.20;99.90;;;;;;5025690;28;20052;-91
2021/11/23 01:22:57;;;;;;;5.70;3.22;;;3.20;99.90;;;;;;5029242;28;20083;-90
2021/11/23 01:25:24;;;;;;;7.72;3.97;;;3.20;99.90;;;;;;5043304;28;20021;-91
2021/11/23 01:27:50;;;;;;;7.05;4.05;;;3.30;99.90;;;;;;5033509;28;20592;-91
2021/11/23 01:30:16;;;;;;;6.90;3.75;;;3.20;99.90;;;;;;5061130;28;20025;-90
2021/11/23 01:32:43;;;;;;;5.50;3.78;;;3.30;99.90;;;;;;5027365;28;20048;-90
2021/11/23 01:35:15;;;;;;;7.72;4.28;;;3.30;99.90;;;;;;5032012;28;20067;-90
2021/11/23 01:38:02;;;;;;;8.02;3.70;;;3.30;99.90;;;;;;5031199;28;20025;-91
2021/11/23 01:40:29;;;;;;;8.63;4.93;;;3.30;99.90;;;;;;5022786;28;20572;-90
2021/11/23 01:42:58;;;;;;;6.72;4.05;;;3.40;99.90;;;;;;5041915;28;20022;-92
2021/11/23 01:45:27;;;;;;;7.85;5.35;;;3.40;99.90;;;;;;5067401;28;20068;-91
2021/11/23 01:47:55;;;;;;;7.50;4.65;;;3.40;99.90;;;;;;5068783;28;20033;-91
2021/11/23 01:50:22;;;;;;;8.93;4.40;;;3.40;99.90;;;;;;5057328;28;20063;-91
2021/11/23 01:52:53;;;;;;;6.93;4.18;;;3.40;99.90;;;;;;5064142;28;20110;-91
2021/11/23 01:55:22;;;;;;;10.45;4.85;;;3.50;99.90;;;;;;5030678;28;20469;-92
2021/11/23 01:57:49;;;;;;;8.98;5.45;;;3.50;99.90;;;;;;5053343;28;20036;-90
2021/11/23 02:00:16;;;;;;;7.80;4.85;;;3.50;99.90;;;;;;5051596;28;20029;-90
2021/11/23 02:02:45;;;;;;;7.22;5.13;;;3.50;99.90;;;;;;5068564;28;20087;-91
2021/11/23 02:05:13;;;;;;;9.98;5.35;;;3.50;99.90;;;;;;5079735;28;20142;-91
2021/11/23 02:07:39;;;;;;;9.80;4.90;;;3.50;99.90;;;;;;5039793;28;20546;-91
2021/11/23 02:10:12;;;;;;;7.45;5.13;;;3.60;99.90;;;;;;5050699;28;20137;-91
2021/11/23 02:12:40;;;;;;;6.93;4.47;;;3.60;99.90;;;;;;5073927;28;20025;-91
2021/11/23 02:15:12;;;;;;;7.68;5.13;;;3.60;99.90;;;;;;5054969;28;20469;-91
2021/11/23 02:17:39;;;;;;;9.60;5.38;;;3.70;99.90;;;;;;5053722;28;20021;-90
2021/11/23 02:20:24;;;;;;;8.35;5.00;;;3.60;99.90;;;;;;5053637;28;20029;-91
2021/11/23 02:22:52;;;;;;;7.97;5.10;;;3.70;99.90;;;;;;5045863;28;20424;-91
2021/11/23 02:25:21;;;;;;;7.15;4.53;;;3.70;99.90;;;;;;5068027;28;20026;-90
2021/11/23 02:27:49;;;;;;;9.55;4.88;;;3.70;99.90;;;;;;5035112;28;20033;-91
2021/11/23 02:30:17;;;;;;;8.77;4.80;;;3.80;99.90;;;;;;5050402;28;20044;-92
2021/11/23 02:32:54;;;;;;;12.70;5.90;;;3.80;99.90;;;;;;5034378;28;20492;-91
2021/11/23 02:35:23;;;;;;;13.40;5.20;;;3.80;99.90;;;;;;5081400;28;20033;-90
2021/11/23 02:37:53;;;;;;;10.23;5.97;;;3.80;99.90;;;;;;5046922;28;20030;-92
2021/11/23 02:40:21;;;;;;;13.50;6.30;;;3.80;99.90;;;;;;5037712;28;20036;-91
2021/11/23 02:42:47;;;;;;;9.15;5.40;;;3.80;99.90;;;;;;5076860;28;20021;-91
2021/11/23 02:45:20;;;;;;;10.43;5.95;;;3.80;99.90;;;;;;5062945;28;20049;-91
2021/11/23 02:47:54;;;;;;;9.65;4.60;;;3.80;99.90;;;;;;5056178;28;20032;-90
2021/11/23 02:50:22;;;;;;;7.63;5.10;;;3.90;99.90;;;;;;5068467;28;20290;-87
2021/11/23 02:52:51;;;;;;;9.68;5.10;;;3.90;99.90;;;;;;5049951;28;20093;-88
2021/11/23 02:55:20;;;;;;;9.65;5.25;;;3.90;99.90;;;;;;5056478;28;20026;-89
2021/11/23 02:57:47;;;;;;;10.77;5.47;;;3.90;99.90;;;;;;5045618;28;20037;-90
2021/11/23 03:00:19;;;;;;;10.07;5.20;;;3.90;99.90;;;;;;5034790;28;20028;-91
2021/11/23 03:02:48;;;;;;;8.02;5.15;;;3.90;99.90;;;;;;5032131;28;20025;-91
2021/11/23 03:05:21;;;;;;;9.10;5.15;;;3.90;99.90;;;;;;5054133;28;20379;-92
2021/11/23 03:07:49;;;;;;;7.82;4.63;;;3.90;99.90;;;;;;5016297;28;20164;-92
2021/11/23 03:10:18;;;;;;;6.85;4.63;;;4.00;99.90;;;;;;5022342;28;20027;-91
2021/11/23 03:12:47;;;;;;;8.27;4.65;;;4.00;99.90;;;;;;5059324;28;20048;-92
2021/11/23 03:15:15;;;;;;;7.45;4.40;;;4.00;99.90;;;;;;5037229;28;20036;-91
2021/11/23 03:17:41;;;;;;;7.28;4.30;;;4.00;99.90;;;;;;5034940;28;20087;-89
2021/11/23 03:20:18;;;;;;;9.73;4.55;;;4.00;99.90;;;;;;5035520;28;20420;-89
2021/11/23 03:22:45;;;;;;;7.78;4.28;;;4.10;99.90;;;;;;5035293;28;20425;-89
2021/11/23 03:25:12;;;;;;;7.68;5.03;;;4.10;99.90;;;;;;5035924;28;20048;-91
2021/11/23 03:27:38;;;;;;;7.22;4.53;;;4.10;99.90;;;;;;5035235;28;20091;-91
2021/11/23 03:30:07;;;;;;;6.40;3.83;;;4.10;99.90;;;;;;5035317;28;20033;-91
2021/11/23 03:32:34;;;;;;;8.68;4.93;;;4.20;99.90;;;;;;5042127;28;20108;-92
2021/11/23 03:35:00;;;;;;;8.85;5.15;;;4.20;99.90;;;;;;5037446;28;20025;-89
2021/11/23 03:37:27;;;;;;;6.43;4.82;;;4.20;99.90;;;;;;5036617;28;20042;-92
2021/11/23 03:39:54;;;;;;;9.95;4.63;;;4.20;99.90;;;;;;5036157;28;20045;-91
2021/11/23 03:42:21;;;;;;;7.20;4.82;;;4.20;99.90;;;;;;5034861;28;20017;-91
2021/11/23 03:44:47;;;;;;;8.05;5.35;;;4.20;99.90;;;;;;5035768;28;20038;-90
2021/11/23 03:47:16;;;;;;;8.88;5.32;;;4.20;99.90;;;;;;5038031;28;20021;-91
2021/11/23 03:49:45;;;;;;;10.00;5.47;;;4.20;99.90;;;;;;5040597;28;20021;-92
2021/11/23 03:52:14;;;;;;;6.90;4.30;;;4.20;99.90;;;;;;5049333;28;20029;-91
2021/11/23 03:54:40;;;;;;;7.15;4.43;;;4.20;99.90;;;;;;5037138;28;20029;-91
2021/11/23 03:57:06;;;;;;;6.68;4.18;;;4.20;99.90;;;;;;5036342;28;20021;-91
2021/11/23 03:59:32;;;;;;;8.77;4.40;;;4.30;99.90;;;;;;5037308;28;20044;-91
2021/11/23 04:01:59;;;;;;;7.10;4.13;;;4.30;99.90;;;;;;5034344;28;20540;-92
2021/11/23 04:04:25;;;;;;;6.32;3.67;;;4.30;99.90;;;;;;5034474;28;20084;-92
2021/11/23 04:06:51;;;;;;;6.60;3.78;;;4.30;99.90;;;;;;5034826;28;20021;-91
2021/11/23 04:09:18;;;;;;;7.22;3.72;;;4.30;99.90;;;;;;5034729;28;20377;-92
2021/11/23 04:11:44;;;;;;;7.13;3.63;;;4.40;99.90;;;;;;5034106;28;20125;-91
2021/11/23 04:14:10;;;;;;;5.22;3.85;;;4.40;99.90;;;;;;5034132;28;20480;-91
2021/11/23 04:16:37;;;;;;;9.50;4.07;;;4.50;99.90;;;;;;5035368;28;20029;-93
2021/11/23 04:19:03;;;;;;;7.07;3.40;;;4.50;99.90;;;;;;5034690;28;20033;-91
2021/11/23 04:21:29;;;;;;;6.05;3.50;;;4.50;99.90;;;;;;5033746;28;20511;-91
2021/11/23 04:23:56;;;;;;;7.72;3.78;;;4.60;99.90;;;;;;5034942;28;20034;-91
2021/11/23 04:26:22;;;;;;;7.03;3.60;;;4.60;99.90;;;;;;5037637;28;20037;-92
2021/11/23 04:28:49;;;;;;;6.13;3.97;;;4.60;99.90;;;;;;5051852;28;20385;-91
2021/11/23 04:31:16;;;;;;;6.22;3.75;;;4.60;99.90;;;;;;5035646;28;20036;-91
2021/11/23 04:33:44;;;;;;;6.55;3.85;;;4.70;99.90;;;;;;5034382;28;20481;-92
2021/11/23 04:36:09;;;;;;;6.70;3.58;;;4.70;99.90;;;;;;5035338;28;20119;-91
2021/11/23 04:38:35;;;;;;;6.03;3.45;;;4.70;99.90;;;;;;5039219;28;20060;-92
2021/11/23 04:41:01;;;;;;;7.85;3.58;;;4.70;99.90;;;;;;5043555;28;20025;-91
2021/11/23 04:43:27;;;;;;;7.10;3.30;;;4.80;99.90;;;;;;5042691;28;20021;-91
2021/11/23 04:45:53;;;;;;;6.30;3.78;;;4.80;99.90;;;;;;5049594;28;20053;-91
2021/11/23 04:48:19;;;;;;;6.93;3.58;;;4.80;99.90;;;;;;5064404;28;20025;-92
2021/11/23 04:50:45;;;;;;;5.80;2.95;;;4.80;99.90;;;;;;5045184;28;20030;-92
2021/11/23 04:53:11;;;;;;;6.55;3.20;;;4.90;99.90;;;;;;5035935;28;20120;-91
2021/11/23 04:55:37;;;;;;;4.90;3.30;;;4.90;99.90;;;;;;5035180;28;20072;-91
2021/11/23 04:58:03;;;;;;;9.60;3.03;;;5.00;99.90;;;;;;5034588;28;20034;-92
2021/11/23 05:00:29;;;;;;;4.40;3.08;;;5.00;99.90;;;;;;5052241;28;20497;-93
2021/11/23 05:02:55;;;;;;;5.68;3.38;;;5.00;99.90;;;;;;5035933;28;20041;-92
2021/11/23 05:05:21;;;;;;;7.80;3.40;;;5.00;99.90;;;;;;5034856;28;20087;-92
2021/11/23 05:07:47;;;;;;;5.13;2.90;;;5.00;99.90;;;;;;5034870;28;20025;-90
2021/11/23 05:10:15;;;;;;;5.95;3.10;;;5.00;99.90;;;;;;5035018;28;20072;-90
2021/11/23 05:12:42;;;;;;;8.68;3.45;;;5.10;99.90;;;;;;5034914;28;20028;-90
2021/11/23 05:15:09;;;;;;;7.00;2.97;;;5.00;99.90;;;;;;5038292;28;20022;-90
2021/11/23 05:17:36;;;;;;;6.63;3.13;;;5.10;99.90;;;;;;5048224;28;20045;-92
2021/11/23 05:20:03;;;;;;;6.57;3.08;;;5.10;99.90;;;;;;5040843;28;20022;-93
2021/11/23 05:22:32;;;;;;;5.68;3.00;;;5.10;99.90;;;;;;5040566;28;20026;-92
2021/11/23 05:24:57;;;;;;;6.25;3.20;;;5.10;99.90;;;;;;5038165;28;20038;-93
2021/11/23 05:27:24;;;;;;;8.63;3.33;;;5.10;99.90;;;;;;5037686;28;20048;-92
2021/11/23 05:29:50;;;;;;;6.05;2.95;;;5.10;99.90;;;;;;5037359;28;20465;-91
2021/11/23 05:32:16;;;;;;;6.35;3.17;;;5.10;99.90;;;;;;5053176;28;20052;-90
2021/11/23 05:34:42;;;;;;;5.25;3.13;;;5.10;99.90;;;;;;5035391;28;20073;-90
2021/11/23 05:37:11;;;;;;;7.63;3.08;;;5.10;99.90;;;;;;5040291;28;20091;-90
2021/11/23 05:39:40;;;;;;;5.47;3.20;;;5.20;99.90;;;;;;5035419;28;20022;-90
2021/11/23 05:42:10;;;;;;;7.55;3.55;;;5.20;99.90;;;;;;5036243;28;20026;-91
2021/11/23 05:44:37;;;;;;;6.50;3.33;;;5.20;99.90;;;;;;5051117;28;20028;-91
2021/11/23 05:47:04;;;;;;;6.03;3.17;;;5.20;99.90;;;;;;5035940;28;20083;-91
2021/11/23 05:49:36;;;;;;;6.55;3.33;;;5.20;99.90;;;;;;5047904;28;20021;-91
2021/11/23 05:52:08;;;;;;;6.65;3.30;;;5.30;99.90;;;;;;5054794;28;20024;-89
2021/11/23 05:54:34;;;;;;;5.75;3.17;;;5.30;99.90;;;;;;5038928;28;20029;-90
2021/11/23 05:57:01;;;;;;;5.78;2.40;;;5.30;99.90;;;;;;5046914;28;20076;-91
2021/11/23 05:59:40;;;;;;;5.95;2.95;;;5.30;99.90;;;;;;5046631;28;20115;-91
2021/11/23 06:02:15;;;;;;;6.65;3.58;;;5.30;99.90;;;;;;5037702;28;20030;-91
2021/11/23 06:04:41;;;;;;;8.85;3.40;;;5.40;99.90;;;;;;5039507;28;20045;-91
2021/11/23 06:07:12;;;;;;;6.10;3.17;;;5.30;99.90;;;;;;5043028;28;20017;-90
2021/11/23 06:09:41;;;;;;;4.85;3.25;;;5.40;99.90;;;;;;5041409;28;20028;-90
2021/11/23 06:12:11;;;;;;;5.88;3.05;;;5.30;99.90;;;;;;5051487;28;20017;-91
2021/11/23 06:14:39;;;;;;;5.18;3.08;;;5.40;99.90;;;;;;5035329;28;20088;-91
2021/11/23 06:17:22;;;;;;;6.55;2.85;;;5.40;99.90;;;;;;5044994;28;20017;-91
2021/11/23 06:19:49;;;;;;;6.13;3.50;;;5.40;99.90;;;;;;5023422;28;20034;-91
2021/11/23 06:22:22;;;;;;;6.15;3.58;;;5.40;99.90;;;;;;5050229;28;20475;-90
2021/11/23 06:25:01;;;;;;;6.82;2.90;;;5.40;99.90;;;;;;5043189;28;20024;-91
2021/11/23 06:27:29;;;;;;;5.70;3.22;;;5.40;99.90;;;;;;5043692;28;20026;-90
2021/11/23 06:29:58;;;;;;;5.22;2.90;;;5.40;99.90;;;;;;5049798;28;20033;-89
2021/11/23 06:32:25;;;;;;;4.55;2.70;;;5.40;99.90;;;;;;5038626;28;20028;-88
2021/11/23 06:34:54;;;;;;;6.95;3.33;;;5.40;99.90;;;;;;5033708;28;20064;-90
2021/11/23 06:37:30;;;;;;;7.50;3.70;;;5.40;99.90;;;;;;5037451;28;20025;-91
2021/11/23 06:40:00;;;;;;;6.05;3.25;;;5.40;99.90;;;;;;5052455;28;20040;-92
2021/11/23 06:42:27;;;;;;;6.50;3.53;;;5.40;99.90;;;;;;5056927;28;20036;-91
2021/11/23 06:44:59;;;;;;;7.00;3.70;;;5.40;99.90;;;;;;5044016;28;20146;-92
2021/11/23 06:47:26;;;;;;;7.32;3.65;;;5.50;99.90;;;;;;5055591;28;20086;-92
2021/11/23 06:49:55;;;;;;;10.38;3.63;;;5.50;99.90;;;;;;5040470;28;20444;-91
2021/11/23 06:52:23;;;;;;;6.05;3.72;;;5.50;99.90;;;;;;5036727;28;20091;-92
2021/11/23 06:54:49;;;;;;;8.90;3.63;;;5.50;99.90;;;;;;5035991;28;20358;-93
2021/11/23 06:57:16;;;;;;;7.10;4.15;;;5.50;99.90;;;;;;5036069;28;20079;-92
2021/11/23 06:59:44;;;;;;;8.10;3.63;;;5.50;99.90;;;;;;5051131;28;20033;-92
2021/11/23 07:02:13;;;;;;;7.93;3.97;;;5.40;99.90;;;;;;5056430;28;20020;-92
2021/11/23 07:04:39;;;;;;;7.00;4.00;;;5.40;99.90;;;;;;5037296;28;20128;-93
2021/11/23 07:07:11;;;;;;;6.85;4.28;;;5.40;99.90;;;;;;5037854;28;20056;-92
2021/11/23 07:09:42;;;;;;;8.95;4.22;;;5.40;99.90;;;;;;5058369;28;20057;-93
2021/11/23 07:12:15;;;;;;;7.70;3.47;;;5.40;99.90;;;;;;5060355;28;20056;-92
2021/11/23 07:14:43;;;;;;;7.10;3.63;;;5.40;99.90;;;;;;5036707;28;20026;-92
2021/11/23 07:17:10;;;;;;;5.82;3.60;;;5.30;99.90;;;;;;5036054;28;20172;-91
2021/11/23 07:19:36;;;;;;;4.75;3.20;;;5.30;99.90;;;;;;5035773;28;20049;-92
2021/11/23 07:22:04;;;;;;;8.07;3.75;;;5.20;99.90;;;;;;5051772;28;20473;-93
2021/11/23 07:24:33;;;;;;;6.10;3.47;;;5.20;99.90;;;;;;5040223;28;20057;-92
2021/11/23 07:27:01;;;;;;;6.68;3.83;;;5.30;99.90;;;;;;5035829;28;20049;-91
2021/11/23 07:29:31;;;;;;;7.72;3.92;;;5.20;99.90;;;;;;5047750;28;20029;-91
2021/11/23 07:31:59;;;;;;;6.78;4.05;;;5.20;99.90;;;;;;5037562;28;20416;-91
2021/11/23 07:34:31;;;;;;;6.57;4.20;;;5.20;99.90;;;;;;5034890;28;20036;-92
2021/11/23 07:36:57;;;;;;;7.70;3.80;;;5.20;99.90;;;;;;5044445;28;20029;-91
2021/11/23 07:39:28;;;;;;;6.38;4.03;;;5.30;99.90;;;;;;5044845;28;20034;-91
2021/11/23 07:42:06;;;;;;;6.35;4.03;;;5.30;99.90;;;;;;5037207;28;20029;-91
2021/11/23 07:44:34;;;;;;;7.28;4.13;;;5.50;99.90;;;;;;5048807;28;20033;-91
2021/11/23 07:47:00;;;;;;;6.15;3.55;;;5.50;99.90;;;;;;5045783;28;20503;-90
2021/11/23 07:49:27;;;;;;;7.75;3.70;;;5.60;99.90;;;;;;5056160;28;20059;-92
2021/11/23 07:51:58;;;;;;;6.38;3.65;;;5.70;99.90;;;;;;5049561;28;20017;-91
2021/11/23 07:54:25;;;;;;;6.53;3.55;;;5.70;99.90;;;;;;5041830;28;20033;-93
2021/11/23 07:56:54;;;;;;;6.22;3.13;;;5.70;99.90;;;;;;5043513;28;20086;-93
2021/11/23 07:59:20;;;;;;;6.32;3.75;;;5.80;99.90;;;;;;5054654;28;20033;-93
2021/11/23 08:01:47;;;;;;;7.85;4.45;;;5.80;99.90;;;;;;5056190;28;20017;-93
2021/11/23 08:04:16;;;;;;;7.55;4.40;;;5.80;99.90;;;;;;5037055;28;20116;-92
2021/11/23 08:06:43;;;;;;;6.75;4.10;;;5.80;99.90;;;;;;5049847;28;20028;-92
2021/11/23 08:09:14;;;;;;;10.43;4.95;;;5.80;99.90;;;;;;5035205;28;20053;-92
2021/11/23 08:11:43;;;;;;;10.55;5.05;;;5.80;99.90;;;;;;5034679;28;20132;-93
2021/11/23 08:14:11;;;;;;;7.07;5.00;;;5.80;99.90;;;;;;5035410;28;20068;-93
2021/11/23 08:16:53;;;;;;;6.15;4.30;;;5.90;99.90;;;;;;5039090;28;20013;-94
2021/11/23 08:19:24;;;;;;;8.77;4.78;;;5.90;99.90;;;;;;5043384;28;20049;-92
2021/11/23 08:21:50;;;;;;;7.93;4.90;;;6.00;99.90;;;;;;5034481;28;20026;-92
2021/11/23 08:24:17;;;;;;;6.72;4.43;;;6.00;99.90;;;;;;5042105;28;20437;-92
2021/11/23 08:26:47;;;;;;;6.30;4.47;;;6.00;99.90;;;;;;5034986;28;20022;-93
2021/11/23 08:29:21;;;;;;;8.70;5.70;;;6.00;99.90;;;;;;5034988;28;20116;-93
2021/11/23 08:31:55;;;;;;;7.40;4.63;;;6.10;99.90;;;;;;5032295;28;20462;-93
2021/11/23 08:34:23;;;;;;;6.78;4.03;;;6.00;99.90;;;;;;5036756;28;20044;-93
2021/11/23 08:36:53;;;;;;;6.75;4.07;;;6.10;99.90;;;;;;5023157;28;20033;-92
2021/11/23 08:39:22;;;;;;;6.85;4.43;;;6.10;99.90;;;;;;5043595;28;20040;-95
2021/11/23 08:41:49;;;;;;;7.07;4.20;;;6.10;99.90;;;;;;5048785;28;20021;-93
2021/11/23 08:44:17;;;;;;;9.90;4.20;;;6.10;99.90;;;;;;5044360;28;20040;-95
2021/11/23 08:46:44;;;;;;;7.75;4.63;;;6.20;99.90;;;;;;5034307;28;20500;-93
2021/11/23 08:49:12;;;;;;;6.53;4.25;;;6.30;99.90;;;;;;5042483;28;20031;-94
2021/11/23 08:51:38;;;;;;;10.07;4.82;;;6.30;99.90;;;;;;5039332;28;20132;-93
2021/11/23 08:54:08;;;;;;;7.50;4.63;;;6.30;99.90;;;;;;5033309;28;20050;-92
2021/11/23 08:56:38;;;;;;;8.38;4.70;;;6.30;99.90;;;;;;5032087;28;20433;-94
2021/11/23 08:59:10;;;;;;;7.93;4.65;;;6.30;99.90;;;;;;5033685;28;20030;-93
2021/11/23 09:01:36;;;;;;;7.00;3.97;;;6.30;99.90;;;;;;5045840;28;20025;-92
2021/11/23 09:04:07;;;;;;;9.65;4.57;;;6.30;99.90;;;;;;5038233;28;20091;-92
2021/11/23 09:06:38;;;;;;;9.63;4.45;;;6.40;99.90;;;;;;5033214;28;20036;-92
2021/11/23 09:09:27;;;;;;;8.45;4.90;;;6.40;99.90;;;;;;5042443;28;20053;-93
2021/11/23 09:11:55;;;;;;;9.13;4.57;;;6.60;99.90;;;;;;5037708;28;20066;-93
2021/11/23 09:14:25;;;;;;;10.68;5.05;;;6.60;99.90;;;;;;5046601;28;20033;-93
2021/11/23 09:16:57;;;;;;;8.73;5.00;;;6.60;99.90;;;;;;5046502;28;20053;-92
2021/11/23 09:19:24;;;;;;;9.10;5.15;;;6.60;99.90;;;;;;5046249;28;20021;-91
2021/11/23 09:21:57;;;;;;;9.93;5.10;;;6.70;99.90;;;;;;5042160;28;20053;-93
2021/11/23 09:24:30;;;;;;;9.43;5.57;;;6.80;99.90;;;;;;5061763;28;20026;-95
2021/11/23 09:26:56;;;;;;;6.35;4.45;;;7.00;99.90;;;;;;5033510;28;20021;-93
2021/11/23 09:29:27;;;;;;;10.38;5.50;;;7.20;99.90;;;;;;5033784;28;20508;-93
2021/11/23 09:31:53;;;;;;;13.90;7.25;;;7.30;99.90;;;;;;5048763;28;20025;-93
2021/11/23 09:34:22;;;;;;;12.55;6.82;;;7.30;99.90;;;;;;5026941;28;20543;-93
2021/11/23 09:36:54;;;;;;;9.88;6.72;;;7.30;99.90;;;;;;5040564;28;20548;-93
2021/11/23 09:39:22;;;;;;;10.15;6.03;;;7.40;99.90;;;;;;5054805;28;20587;-93
2021/11/23 09:41:57;;;;;;;11.55;6.35;;;7.50;99.90;;;;;;5039074;28;20042;-93
2021/11/23 09:44:23;;;;;;;15.00;6.97;;;7.60;99.90;;;;;;5045900;28;20052;-93
2021/11/23 09:46:55;;;;;;;14.15;7.35;;;7.60;99.90;;;;;;5045502;28;20053;-93
2021/11/23 09:49:24;;;;;;;11.18;7.20;;;7.70;99.90;;;;;;5044754;28;20033;-94
2021/11/23 09:51:51;;;;;;;13.95;8.00;;;7.70;99.90;;;;;;5023303;28;20112;-94
2021/11/23 09:54:32;;;;;;;12.98;6.97;;;7.70;99.90;;;;;;5057861;28;20097;-93
2021/11/23 09:57:01;;;;;;;11.93;7.70;;;7.70;99.90;;;;;;5061518;28;20036;-94
2021/11/23 09:59:27;;;;;;;13.00;7.43;;;7.80;99.90;;;;;;5057013;28;20052;-93
2021/11/23 10:02:30;;;;;;;16.63;7.05;;;7.90;99.90;;;;;;5072772;28;20025;-93
2021/11/23 10:05:26;;;;;;;13.30;6.63;;;8.00;99.90;;;;;;5038600;28;20029;-93
2021/11/23 10:07:52;;;;;;;12.43;6.78;;;8.00;99.90;;;;;;5037616;28;20060;-93
2021/11/23 10:10:27;;;;;;;11.65;7.22;;;8.10;99.90;;;;;;5054447;28;20013;-93
2021/11/23 10:12:59;;;;;;;12.90;7.55;;;8.20;99.90;;;;;;5029183;28;20063;-94
2021/11/23 10:15:30;;;;;;;12.45;8.15;;;8.20;99.90;;;;;;5040538;28;20025;-94
2021/11/23 10:18:28;;;;;;;13.70;8.50;;;8.40;99.90;;;;;;5038579;28;20068;-93
2021/11/23 10:21:00;;;;;;;14.10;9.23;;;8.40;99.90;;;;;;5032506;28;20396;-92
2021/11/23 10:23:58;;;;;;;13.60;8.95;;;8.40;99.90;;;;;;5062346;28;20481;-93
2021/11/23 10:26:37;;;;;;;17.27;10.10;;;8.40;99.90;;;;;;5040343;28;20091;-93
2021/11/23 10:29:09;;;;;;;14.68;9.10;;;8.40;99.90;;;;;;5057658;28;20032;-93
2021/11/23 10:31:45;;;;;;;20.10;10.85;;;8.40;99.90;;;;;;5056880;28;20108;-94
2021/11/23 10:34:15;;;;;;;17.85;9.27;;;8.50;99.90;;;;;;5052587;28;20036;-94
2021/11/23 10:36:50;;;;;;;12.13;8.73;;;8.50;99.90;;;;;;5058916;28;20113;-92
2021/11/23 10:39:32;;;;;;;18.02;10.25;;;8.60;99.90;;;;;;5030204;28;20033;-92
2021/11/23 10:42:01;;;;;;;15.95;9.18;;;8.60;99.90;;;;;;5052335;28;20106;-94
2021/11/23 10:44:32;;;;;;;14.48;9.02;;;8.70;99.90;;;;;;5040780;28;20052;-93
2021/11/23 10:47:05;;;;;;;12.95;9.10;;;8.70;99.90;;;;;;5049157;28;20046;-94
2021/11/23 10:49:34;;;;;;;13.45;9.52;;;8.70;99.90;;;;;;5048769;28;20030;-95
2021/11/23 10:52:01;;;;;;;12.63;8.88;;;8.70;99.90;;;;;;5059389;28;20023;-93
2021/11/23 10:54:32;;;;;;;12.30;9.00;;;8.70;99.90;;;;;;5039439;28;20017;-94
2021/11/23 10:57:10;;;;;;;17.58;9.15;;;8.80;99.90;;;;;;5037948;28;20465;-94
2021/11/23 10:59:48;;;;;;;12.18;8.40;;;8.80;99.90;;;;;;5032650;28;20136;-93
2021/11/23 11:02:17;;;;;;;13.13;7.72;;;8.80;99.90;;;;;;5039926;28;20112;-94
2021/11/23 11:05:04;;;;;;;13.40;9.32;;;8.90;99.90;;;;;;5037679;28;20030;-92
2021/11/23 11:07:42;;;;;;;14.48;9.93;;;9.10;99.90;;;;;;5056303;28;20041;-93
2021/11/23 11:10:10;;;;;;;13.18;8.10;;;9.20;99.90;;;;;;5037740;28;20116;-95
2021/11/23 11:12:40;;;;;;;12.68;8.20;;;9.30;99.90;;;;;;5034148;28;20056;-94
2021/11/23 11:15:14;;;;;;;10.40;8.05;;;9.50;99.90;;;;;;5017092;28;20030;-94
2021/11/23 11:17:43;;;;;;;;;;;9.80;99.90;;;;;;5018900;28;20038;-94
2021/11/23 11:20:36;;;;;;;13.10;8.23;;;9.90;99.90;;;;;;5035644;28;19952;-94
2021/11/23 11:23:52;;;;;;;10.77;7.72;;;9.90;99.90;;;;;;5044838;28;20469;-94
2021/11/23 11:26:37;;;;;;;11.50;7.57;;;10.20;99.90;;;;;;5020761;28;20069;-94
2021/11/23 11:29:24;;;;;;;9.75;7.15;;;10.40;99.90;;;;;;5046983;28;20040;-94
2021/11/23 11:31:54;;;;;;;10.43;6.93;;;10.70;99.90;;;;;;5049919;28;20025;-94
2021/11/23 11:34:39;;;;;;;10.57;7.00;;;11.30;99.90;;;;;;5054878;28;20033;-94
2021/11/23 11:37:35;;;;;;;9.75;7.43;;;11.80;99.90;;;;;;5035139;28;20021;-94
2021/11/23 11:40:04;;;;;;;9.52;6.28;;;12.10;99.90;;;;;;5036369;28;20056;-94
2021/11/23 11:42:53;;;;;;;9.40;6.10;;;12.00;99.90;;;;;;5038058;28;20025;-93
2021/11/23 11:45:37;;;;;;;9.30;5.40;;;12.00;99.90;;;;;;5041478;28;20022;-95
2021/11/23 11:48:24;;;;;;;8.50;5.20;;;11.80;99.90;;;;;;5051185;28;20492;-93
2021/11/23 11:51:26;;;;;;;7.85;4.90;;;11.60;99.90;;;;;;5038629;28;20033;-94
2021/11/23 11:53:55;;;;;;;7.40;4.80;;;11.50;99.90;;;;;;5035242;28;20028;-94
2021/11/23 11:56:40;;;;;;;8.25;5.32;;;11.20;99.90;;;;;;5033921;28;20041;-94
2021/11/23 11:59:24;;;;;;;6.82;4.60;;;11.10;99.90;;;;;;5042503;28;20025;-94
2021/11/23 12:02:06;;;;;;;5.65;4.18;;;10.90;99.90;;;;;;5071982;28;20059;-95
2021/11/23 12:05:12;;;;;;;;;;;;;;;;;;;;;
2021/11/23 12:07:41;;;;;;;6.43;4.35;;;10.70;99.90;;;;;;5036800;28;20036;-93
2021/11/23 12:10:33;;;;;;;7.78;4.78;;;10.50;99.90;;;;;;5034508;28;20072;-92
2021/11/23 12:13:08;;;;;;;7.38;4.72;;;10.40;99.90;;;;;;5051607;28;20366;-92
2021/11/23 12:16:11;;;;;;;8.18;5.03;;;10.30;99.90;;;;;;5047829;28;20044;-91
2021/11/23 12:18:44;;;;;;;8.90;4.70;;;10.20;99.90;;;;;;5029826;28;20119;-92
2021/11/23 12:21:17;;;;;;;8.10;5.97;;;10.20;99.90;;;;;;5056743;28;20033;-91
2021/11/23 12:24:40;;;;;;;;;;;;;;;;;;;;;
2021/11/23 12:27:14;;;;;;;8.68;5.85;;;10.00;99.90;;;;;;5019339;28;20121;-92
2021/11/23 12:29:41;;;;;;;8.10;5.57;;;9.90;99.90;;;;;;5016986;28;20026;-93
2021/11/23 12:32:12;;;;;;;10.10;7.40;;;9.80;99.90;;;;;;5016997;28;20462;-94
2021/11/23 12:34:54;;;;;;;11.55;7.93;;;9.70;99.90;;;;;;5031609;28;20034;-93
2021/11/23 12:37:31;;;;;;;11.40;7.55;;;9.70;99.90;;;;;;5018875;28;20051;-93
2021/11/23 12:40:00;;;;;;;10.32;6.75;;;9.70;99.90;;;;;;5033736;28;20025;-93
2021/11/23 12:42:26;;;;;;;9.85;7.10;;;9.70;99.90;;;;;;5053902;28;20029;-94
2021/11/23 12:44:55;;;;;;;10.57;7.22;;;9.70;99.90;;;;;;5048047;28;20399;-93
2021/11/23 12:47:27;;;;;;;13.80;7.63;;;9.70;99.90;;;;;;5035149;28;20053;-94
2021/11/23 12:49:57;;;;;;;9.43;6.45;;;9.70;99.90;;;;;;5037924;28;20025;-94
2021/11/23 12:52:28;;;;;;;9.00;6.25;;;9.70;99.90;;;;;;5021178;28;20175;-93
2021/11/23 12:55:18;;;;;;;8.13;5.40;;;9.80;99.90;;;;;;5042555;28;20028;-94
2021/11/23 12:57:52;;;;;;;9.98;6.43;;;9.90;99.90;;;;;;5040953;28;20037;-94
2021/11/23 13:00:22;;;;;;;5.90;5.25;;;9.90;99.90;;;;;;5040419;28;20036;-93
2021/11/23 13:02:55;;;;;;;8.80;5.13;;;10.00;99.90;;;;;;5050483;28;20359;-95
2021/11/23 13:05:33;;;;;;;8.20;5.07;;;10.00;99.90;;;;;;5037848;28;20366;-96
2021/11/23 13:08:08;;;;;;;7.18;4.03;;;10.10;99.90;;;;;;5038006;28;20032;-95
2021/11/23 13:10:45;;;;;;;7.90;5.20;;;10.20;99.90;;;;;;5042419;28;20025;-92
2021/11/23 13:13:28;;;;;;;6.25;3.97;;;10.40;99.90;;;;;;5047014;28;20044;-92
2021/11/23 13:16:02;;;;;;;6.47;4.60;;;10.50;99.90;;;;;;5039599;28;20601;-94